Time;durP1;ratioP1;P1;durP2;ratioP2;P2;SDS_P1;SDS_P2;PMS_P1;PMS_P2;Temp;Humidity;BMP_temperature;BMP_pressure;BME280_temperature;BME280_humidity;BME280_pressure;Samples;Min_cycle;Max_cycle;Signal;HPM_P1;HPM_P2
2024/01/20 00:02:17;;;;;;;34.70;18.00;;;;;;;;;;5105113;27;20048;-61
2024/01/20 00:04:44;;;;;;;29.38;18.27;;;;;;;;;;5105833;27;20056;-61
2024/01/20 00:07:10;;;;;;;28.02;17.52;;;;;;;;;;5105837;27;20533;-59
2024/01/20 00:09:37;;;;;;;25.65;17.23;;;;;;;;;;5106128;27;20559;-61
2024/01/20 00:12:16;;;;;;;30.30;17.45;;;;;;;;;;5106416;27;20532;-62
2024/01/20 00:14:42;;;;;;;32.65;18.05;;;;;;;;;;5105984;28;20462;-61
2024/01/20 00:17:09;;;;;;;29.00;16.90;;;;;;;;;;5105488;27;20155;-60
2024/01/20 00:19:50;;;;;;;28.83;17.13;;;;;;;;;;5106111;27;20186;-60
2024/01/20 00:22:19;;;;;;;27.48;16.60;;;;;;;;;;5105865;27;20052;-61
2024/01/20 00:24:45;;;;;;;26.58;17.25;;;;;;;;;;5104417;28;20528;-59
2024/01/20 00:27:13;;;;;;;34.22;19.48;;;;;;;;;;5105805;27;20094;-59
2024/01/20 00:29:39;;;;;;;29.58;18.15;;;;;;;;;;5105148;27;20497;-60
2024/01/20 00:32:06;;;;;;;32.00;18.10;;;;;;;;;;5105711;27;20056;-61
2024/01/20 00:34:32;;;;;;;30.52;18.23;;;;;;;;;;5103262;27;20163;-60
2024/01/20 00:37:19;;;;;;;30.00;18.42;;;;;;;;;;5106078;27;20421;-61
2024/01/20 00:39:45;;;;;;;30.88;18.13;;;;;;;;;;5104990;27;20060;-59
2024/01/20 00:42:11;;;;;;;23.00;15.73;;;;;;;;;;5103662;27;20444;-61
2024/01/20 00:44:39;;;;;;;25.42;16.42;;;;;;;;;;5104316;28;20510;-62
2024/01/20 00:47:05;;;;;;;32.85;18.90;;;;;;;;;;5105354;28;20056;-61
2024/01/20 00:49:32;;;;;;;26.25;16.58;;;;;;;;;;5103819;28;20052;-61
2024/01/20 00:51:58;;;;;;;29.27;18.95;;;;;;;;;;5104931;28;20048;-60
2024/01/20 00:54:25;;;;;;;34.00;18.27;;;;;;;;;;5104605;27;20044;-60
2024/01/20 00:56:51;;;;;;;32.78;19.42;;;;;;;;;;5104616;27;20109;-61
2024/01/20 00:59:18;;;;;;;32.28;18.92;;;;;;;;;;5105644;27;20052;-60
2024/01/20 01:01:44;;;;;;;32.65;20.58;;;;;;;;;;5103977;27;20056;-60
2024/01/20 01:04:11;;;;;;;31.20;19.83;;;;;;;;;;5104830;28;20048;-60
2024/01/20 01:06:37;;;;;;;34.10;19.95;;;;;;;;;;5104712;27;20052;-61
2024/01/20 01:09:04;;;;;;;29.17;18.27;;;;;;;;;;5104488;27;20055;-61
2024/01/20 01:11:30;;;;;;;39.40;20.08;;;;;;;;;;5104096;28;20143;-60
2024/01/20 01:13:57;;;;;;;37.25;21.20;;;;;;;;;;5104010;28;20048;-61
2024/01/20 01:16:23;;;;;;;43.20;22.33;;;;;;;;;;5104154;27;20055;-61
2024/01/20 01:18:50;;;;;;;41.10;21.25;;;;;;;;;;5104667;28;20052;-61
2024/01/20 01:21:16;;;;;;;42.60;21.55;;;;;;;;;;5101402;27;20478;-60
2024/01/20 01:23:43;;;;;;;33.70;18.65;;;;;;;;;;5102698;28;20071;-60
2024/01/20 01:26:09;;;;;;;41.17;21.55;;;;;;;;;;5088835;28;20056;-60
2024/01/20 01:28:35;;;;;;;33.85;18.73;;;;;;;;;;5084004;28;20065;-60
2024/01/20 01:31:02;;;;;;;39.47;19.48;;;;;;;;;;5085073;28;20521;-60
2024/01/20 01:33:28;;;;;;;42.00;21.48;;;;;;;;;;5104593;27;20503;-61
2024/01/20 01:35:55;;;;;;;40.45;21.02;;;;;;;;;;5104228;27;20554;-60
2024/01/20 01:38:26;;;;;;;37.78;21.13;;;;;;;;;;5104974;27;20083;-62
2024/01/20 01:40:52;;;;;;;39.42;21.52;;;;;;;;;;5104587;27;20044;-61
2024/01/20 01:43:19;;;;;;;46.13;22.38;;;;;;;;;;5103150;28;20055;-60
2024/01/20 01:45:45;;;;;;;43.88;22.90;;;;;;;;;;5103938;27;20447;-61
2024/01/20 01:48:12;;;;;;;43.85;22.25;;;;;;;;;;5104571;27;20060;-61
2024/01/20 01:50:38;;;;;;;43.92;22.02;;;;;;;;;;5104483;28;20052;-61
2024/01/20 01:53:05;;;;;;;44.20;20.15;;;;;;;;;;5104087;27;20143;-61
2024/01/20 01:55:33;;;;;;;45.42;22.40;;;;;;;;;;5103452;27;20067;-61
2024/01/20 01:57:59;;;;;;;40.75;21.25;;;;;;;;;;5103793;28;20600;-61
2024/01/20 02:00:26;;;;;;;43.58;22.50;;;;;;;;;;5104343;27;20056;-60
2024/01/20 02:02:52;;;;;;;46.15;22.70;;;;;;;;;;5103914;27;20059;-60
2024/01/20 02:05:19;;;;;;;42.60;21.63;;;;;;;;;;5104363;27;20425;-60
2024/01/20 02:07:47;;;;;;;46.78;21.58;;;;;;;;;;5103768;27;20139;-60
2024/01/20 02:10:16;;;;;;;46.97;24.00;;;;;;;;;;5103828;27;20080;-60
2024/01/20 02:12:43;;;;;;;52.75;22.25;;;;;;;;;;5103540;27;20107;-59
2024/01/20 02:15:09;;;;;;;45.55;21.88;;;;;;;;;;5104304;27;20078;-60
2024/01/20 02:17:49;;;;;;;48.53;22.50;;;;;;;;;;5104491;27;20059;-61
2024/01/20 02:20:15;;;;;;;51.20;22.10;;;;;;;;;;5103727;27;20052;-61
2024/01/20 02:22:42;;;;;;;43.03;21.38;;;;;;;;;;5104122;28;20060;-60
2024/01/20 02:25:08;;;;;;;45.40;23.00;;;;;;;;;;5103934;27;20573;-60
2024/01/20 02:27:35;;;;;;;44.58;20.73;;;;;;;;;;5103953;27;20565;-61
2024/01/20 02:30:01;;;;;;;47.95;21.98;;;;;;;;;;5103741;27;20087;-60
2024/01/20 02:32:28;;;;;;;47.67;21.17;;;;;;;;;;5103493;27;20478;-60
2024/01/20 02:34:54;;;;;;;49.25;24.30;;;;;;;;;;5103746;28;20171;-60
2024/01/20 02:37:21;;;;;;;43.50;23.17;;;;;;;;;;5103857;28;20056;-60
2024/01/20 02:39:47;;;;;;;43.30;21.42;;;;;;;;;;5103106;27;20215;-61
2024/01/20 02:42:14;;;;;;;47.55;23.00;;;;;;;;;;5102044;28;20067;-61
2024/01/20 02:44:41;;;;;;;36.50;19.85;;;;;;;;;;5103056;28;20540;-59
2024/01/20 02:47:08;;;;;;;43.83;22.08;;;;;;;;;;5103725;27;20131;-60
2024/01/20 02:49:35;;;;;;;45.08;21.38;;;;;;;;;;5103599;28;20166;-60
2024/01/20 02:52:01;;;;;;;41.42;21.23;;;;;;;;;;5102427;27;20052;-61
2024/01/20 02:54:28;;;;;;;41.28;21.48;;;;;;;;;;5103304;27;20051;-61
2024/01/20 02:56:54;;;;;;;46.67;22.30;;;;;;;;;;5102110;27;20534;-59
2024/01/20 02:59:21;;;;;;;45.50;22.88;;;;;;;;;;5103678;27;20052;-61
2024/01/20 03:01:47;;;;;;;53.67;24.27;;;;;;;;;;5103357;27;20052;-61
2024/01/20 03:04:14;;;;;;;49.53;22.40;;;;;;;;;;5103313;27;20425;-61
2024/01/20 03:06:40;;;;;;;47.08;22.42;;;;;;;;;;5103502;28;20054;-60
2024/01/20 03:09:07;;;;;;;43.28;22.95;;;;;;;;;;5103046;28;20079;-60
2024/01/20 03:11:35;;;;;;;48.53;20.98;;;;;;;;;;5103164;28;20058;-61
2024/01/20 03:14:01;;;;;;;51.10;24.05;;;;;;;;;;5102766;28;20525;-61
2024/01/20 03:16:28;;;;;;;45.88;21.83;;;;;;;;;;5103125;28;20533;-61
2024/01/20 03:18:54;;;;;;;44.03;21.25;;;;;;;;;;5102827;27;20545;-61
2024/01/20 03:21:21;;;;;;;50.13;23.52;;;;;;;;;;5103026;28;20055;-60
2024/01/20 03:23:48;;;;;;;44.15;22.35;;;;;;;;;;5102521;27;20529;-60
2024/01/20 03:26:14;;;;;;;40.65;21.73;;;;;;;;;;5103200;27;20060;-60
2024/01/20 03:28:41;;;;;;;44.28;21.77;;;;;;;;;;5103287;27;20059;-61
2024/01/20 03:31:08;;;;;;;42.25;21.65;;;;;;;;;;5102990;28;20062;-60
2024/01/20 03:33:34;;;;;;;38.35;20.10;;;;;;;;;;5103007;27;20059;-60
2024/01/20 03:36:01;;;;;;;45.90;22.52;;;;;;;;;;5103016;27;20056;-59
2024/01/20 03:38:27;;;;;;;51.42;22.55;;;;;;;;;;5102679;27;20044;-60
2024/01/20 03:40:53;;;;;;;41.60;20.20;;;;;;;;;;5102268;27;20079;-61
2024/01/20 03:43:20;;;;;;;38.65;20.02;;;;;;;;;;5103273;27;20608;-61
2024/01/20 03:45:46;;;;;;;46.95;23.17;;;;;;;;;;5102925;28;20131;-62
2024/01/20 03:48:13;;;;;;;39.28;21.98;;;;;;;;;;5102957;28;20131;-60
2024/01/20 03:50:39;;;;;;;44.13;21.13;;;;;;;;;;5102676;27;20063;-60
2024/01/20 03:53:06;;;;;;;42.65;20.92;;;;;;;;;;5102382;28;20052;-61
2024/01/20 03:55:32;;;;;;;45.38;22.23;;;;;;;;;;5102617;27;20130;-61
2024/01/20 03:57:59;;;;;;;47.50;21.75;;;;;;;;;;5101729;27;20927;-60
2024/01/20 04:00:25;;;;;;;37.65;19.60;;;;;;;;;;5101937;28;20055;-61
2024/01/20 04:02:52;;;;;;;46.25;21.95;;;;;;;;;;5102102;28;20063;-62
2024/01/20 04:05:18;;;;;;;45.80;22.13;;;;;;;;;;5102702;27;20131;-61
2024/01/20 04:07:45;;;;;;;46.00;19.98;;;;;;;;;;5102512;27;20052;-61
2024/01/20 04:10:11;;;;;;;40.83;20.60;;;;;;;;;;5106035;27;20113;-62
2024/01/20 04:12:39;;;;;;;45.42;20.60;;;;;;;;;;5106701;27;20045;-61
2024/01/20 04:15:06;;;;;;;40.88;19.23;;;;;;;;;;5106565;27;20078;-60
2024/01/20 04:17:32;;;;;;;43.72;20.00;;;;;;;;;;5105663;28;20048;-60
2024/01/20 04:19:58;;;;;;;44.97;21.05;;;;;;;;;;5104646;27;20638;-61
2024/01/20 04:22:25;;;;;;;43.22;21.27;;;;;;;;;;5105391;27;20056;-61
2024/01/20 04:24:51;;;;;;;43.40;20.77;;;;;;;;;;5105578;27;20054;-60
2024/01/20 04:27:17;;;;;;;41.90;20.67;;;;;;;;;;5106341;28;20543;-61
2024/01/20 04:29:44;;;;;;;43.03;19.85;;;;;;;;;;5105587;27;20094;-60
2024/01/20 04:32:10;;;;;;;45.15;20.20;;;;;;;;;;5106126;27;20055;-60
2024/01/20 04:34:37;;;;;;;35.53;19.17;;;;;;;;;;5105831;27;20482;-58
2024/01/20 04:37:03;;;;;;;45.65;20.52;;;;;;;;;;5104598;28;20052;-61
2024/01/20 04:39:30;;;;;;;45.38;20.30;;;;;;;;;;5105845;27;20067;-61
2024/01/20 04:41:56;;;;;;;50.42;22.27;;;;;;;;;;5105162;27;20052;-59
2024/01/20 04:44:22;;;;;;;40.55;19.52;;;;;;;;;;5105547;28;20044;-61
2024/01/20 04:46:49;;;;;;;43.58;19.20;;;;;;;;;;5105292;28;20071;-58
2024/01/20 04:49:15;;;;;;;31.33;17.58;;;;;;;;;;5104909;28;20576;-59
2024/01/20 04:51:42;;;;;;;41.92;20.08;;;;;;;;;;5104984;27;20048;-60
2024/01/20 04:54:09;;;;;;;37.80;18.02;;;;;;;;;;5105398;27;20595;-60
2024/01/20 04:56:35;;;;;;;48.38;21.38;;;;;;;;;;5105622;27;20090;-61
2024/01/20 04:59:02;;;;;;;37.92;18.70;;;;;;;;;;5104985;27;20052;-58
2024/01/20 05:01:28;;;;;;;36.88;18.23;;;;;;;;;;5105011;27;20512;-61
2024/01/20 05:03:55;;;;;;;43.97;18.50;;;;;;;;;;5103746;28;20566;-60
2024/01/20 05:06:21;;;;;;;39.03;18.75;;;;;;;;;;5105294;27;20131;-59
2024/01/20 05:08:48;;;;;;;40.50;21.50;;;;;;;;;;5105081;27;20052;-60
2024/01/20 05:11:14;;;;;;;41.00;19.23;;;;;;;;;;5104664;28;20131;-60
2024/01/20 05:13:41;;;;;;;36.85;19.45;;;;;;;;;;5105162;27;20059;-59
2024/01/20 05:16:07;;;;;;;35.92;18.55;;;;;;;;;;5104626;27;20175;-61
2024/01/20 05:18:33;;;;;;;43.80;19.58;;;;;;;;;;5104943;28;20054;-61
2024/01/20 05:21:00;;;;;;;41.58;19.05;;;;;;;;;;5103393;27;20056;-59
2024/01/20 05:23:26;;;;;;;41.08;18.73;;;;;;;;;;5104747;28;20052;-61
2024/01/20 05:25:53;;;;;;;42.10;19.63;;;;;;;;;;5104715;28;20857;-61
2024/01/20 05:28:19;;;;;;;39.20;19.70;;;;;;;;;;5105524;27;20063;-61
2024/01/20 05:30:45;;;;;;;36.17;17.05;;;;;;;;;;5103967;27;20048;-60
2024/01/20 05:33:12;;;;;;;35.45;18.08;;;;;;;;;;5105428;27;20055;-61
2024/01/20 05:35:39;;;;;;;38.63;18.50;;;;;;;;;;5104152;27;20105;-59
2024/01/20 05:38:05;;;;;;;39.50;19.02;;;;;;;;;;5104591;27;20149;-60
2024/01/20 05:40:32;;;;;;;38.72;19.75;;;;;;;;;;5104818;27;20056;-61
2024/01/20 05:42:58;;;;;;;37.13;19.50;;;;;;;;;;5104391;27;20052;-61
2024/01/20 05:45:25;;;;;;;39.63;21.00;;;;;;;;;;5104729;27;20139;-60
2024/01/20 05:47:51;;;;;;;41.33;20.63;;;;;;;;;;5103959;28;20056;-61
2024/01/20 05:50:18;;;;;;;40.65;19.65;;;;;;;;;;5103849;27;20078;-61
2024/01/20 05:52:44;;;;;;;43.75;20.63;;;;;;;;;;5104243;28;20141;-59
2024/01/20 05:55:11;;;;;;;46.65;20.38;;;;;;;;;;5103169;28;20059;-60
2024/01/20 05:57:37;;;;;;;41.78;20.40;;;;;;;;;;5104215;28;20531;-61
2024/01/20 06:00:04;;;;;;;44.75;21.38;;;;;;;;;;5103499;27;20059;-60
2024/01/20 06:02:30;;;;;;;40.15;18.90;;;;;;;;;;5103417;27;20098;-61
2024/01/20 06:04:56;;;;;;;43.65;20.13;;;;;;;;;;5103850;27;20127;-61
2024/01/20 06:07:23;;;;;;;38.28;18.77;;;;;;;;;;5104296;27;20535;-61
2024/01/20 06:09:49;;;;;;;39.88;19.75;;;;;;;;;;5104307;27;20121;-61
2024/01/20 06:12:15;;;;;;;43.05;19.42;;;;;;;;;;5104176;27;20497;-61
2024/01/20 06:14:43;;;;;;;44.58;21.27;;;;;;;;;;5103322;27;20055;-60
2024/01/20 06:17:10;;;;;;;50.08;21.05;;;;;;;;;;5103822;28;20485;-61
2024/01/20 06:19:36;;;;;;;44.65;19.60;;;;;;;;;;5104073;28;20567;-59
2024/01/20 06:22:03;;;;;;;44.17;20.92;;;;;;;;;;5104232;28;20804;-60
2024/01/20 06:24:30;;;;;;;41.83;19.27;;;;;;;;;;5104046;28;20079;-60
2024/01/20 06:26:56;;;;;;;44.88;20.00;;;;;;;;;;5104085;28;20147;-61
2024/01/20 06:29:22;;;;;;;46.25;20.98;;;;;;;;;;5103949;28;20481;-60
2024/01/20 06:31:49;;;;;;;43.13;19.23;;;;;;;;;;5101329;27;20052;-60
2024/01/20 06:34:15;;;;;;;43.97;19.77;;;;;;;;;;5102756;27;20063;-60
2024/01/20 06:36:43;;;;;;;40.28;19.80;;;;;;;;;;5094716;28;20056;-60
2024/01/20 06:39:09;;;;;;;42.65;18.85;;;;;;;;;;5104256;27;20519;-61
2024/01/20 06:41:36;;;;;;;44.72;19.38;;;;;;;;;;5103364;27;20502;-61
2024/01/20 06:44:03;;;;;;;37.90;17.70;;;;;;;;;;5088469;27;20353;-61
2024/01/20 06:46:29;;;;;;;38.00;18.42;;;;;;;;;;5103382;27;20048;-61
2024/01/20 06:48:55;;;;;;;40.63;18.42;;;;;;;;;;5109158;27;20092;-59
2024/01/20 06:51:26;;;;;;;43.28;18.95;;;;;;;;;;5103829;28;20070;-60
2024/01/20 06:53:57;;;;;;;42.33;19.48;;;;;;;;;;5092613;28;20060;-61
2024/01/20 06:56:24;;;;;;;40.40;18.83;;;;;;;;;;5088621;28;20078;-61
2024/01/20 06:58:53;;;;;;;40.80;18.85;;;;;;;;;;5087619;28;20469;-61
2024/01/20 07:01:22;;;;;;;33.33;16.70;;;;;;;;;;5082376;28;20060;-60
2024/01/20 07:03:49;;;;;;;38.95;17.40;;;;;;;;;;5082760;28;20050;-61
2024/01/20 07:06:15;;;;;;;33.42;15.65;;;;;;;;;;5083721;28;20052;-59
2024/01/20 07:08:42;;;;;;;41.08;17.98;;;;;;;;;;5083140;28;20049;-60
2024/01/20 07:11:09;;;;;;;36.83;16.70;;;;;;;;;;5091528;28;20131;-60
2024/01/20 07:13:36;;;;;;;40.17;17.95;;;;;;;;;;5102859;27;20087;-61
2024/01/20 07:16:13;;;;;;;34.13;16.75;;;;;;;;;;5102239;27;20581;-62
2024/01/20 07:18:39;;;;;;;36.55;17.17;;;;;;;;;;5102707;28;20063;-60
2024/01/20 07:21:06;;;;;;;37.33;17.92;;;;;;;;;;5103320;27;20052;-61
2024/01/20 07:23:32;;;;;;;38.05;17.92;;;;;;;;;;5097524;28;20334;-60
2024/01/20 07:25:59;;;;;;;38.42;17.92;;;;;;;;;;5083019;28;20052;-60
2024/01/20 07:28:26;;;;;;;36.20;18.50;;;;;;;;;;5087986;28;20064;-58
2024/01/20 07:30:52;;;;;;;36.17;15.52;;;;;;;;;;5095375;27;20095;-61
2024/01/20 07:33:19;;;;;;;35.55;16.45;;;;;;;;;;5094400;27;20057;-59
2024/01/20 07:35:45;;;;;;;37.78;18.10;;;;;;;;;;5098119;27;20193;-59
2024/01/20 07:38:12;;;;;;;38.42;18.40;;;;;;;;;;5101969;28;20052;-61
2024/01/20 07:40:39;;;;;;;31.75;16.25;;;;;;;;;;5103003;27;20150;-59
2024/01/20 07:43:06;;;;;;;31.83;16.05;;;;;;;;;;5104124;27;20056;-60
2024/01/20 07:45:33;;;;;;;38.25;17.77;;;;;;;;;;5091367;28;20095;-60
2024/01/20 07:48:00;;;;;;;23.48;12.95;;;;;;;;;;5086283;28;20507;-58
2024/01/20 07:50:26;;;;;;;35.90;17.48;;;;;;;;;;5086183;28;20076;-61
2024/01/20 07:52:53;;;;;;;43.40;19.27;;;;;;;;;;5085944;28;20084;-60
2024/01/20 07:55:19;;;;;;;47.22;17.77;;;;;;;;;;5095783;28;20125;-60
2024/01/20 07:57:45;;;;;;;38.83;17.48;;;;;;;;;;5106048;28;20051;-60
2024/01/20 08:00:12;;;;;;;32.38;17.25;;;;;;;;;;5104291;28;20144;-60
2024/01/20 08:02:39;;;;;;;34.55;16.88;;;;;;;;;;5093528;27;20167;-60
2024/01/20 08:05:05;;;;;;;36.47;19.10;;;;;;;;;;5087139;28;20049;-63
2024/01/20 08:07:32;;;;;;;42.92;18.98;;;;;;;;;;5085742;28;20057;-61
2024/01/20 08:09:59;;;;;;;43.15;17.27;;;;;;;;;;5085658;28;20052;-60
2024/01/20 08:12:25;;;;;;;36.72;18.17;;;;;;;;;;5086242;28;20053;-60
2024/01/20 08:14:51;;;;;;;30.13;15.07;;;;;;;;;;5087643;28;20049;-60
2024/01/20 08:17:18;;;;;;;40.38;16.63;;;;;;;;;;5106532;27;20056;-61
2024/01/20 08:19:49;;;;;;;32.72;16.27;;;;;;;;;;5101443;28;20056;-59
2024/01/20 08:22:16;;;;;;;37.45;18.08;;;;;;;;;;5104824;27;20135;-60
2024/01/20 08:24:42;;;;;;;39.80;17.95;;;;;;;;;;5094567;28;20056;-61
2024/01/20 08:27:08;;;;;;;38.85;18.27;;;;;;;;;;5105385;28;20082;-61
2024/01/20 08:29:35;;;;;;;32.97;16.80;;;;;;;;;;5105584;28;20048;-61
2024/01/20 08:32:02;;;;;;;37.80;16.15;;;;;;;;;;5105600;27;20113;-62
2024/01/20 08:34:28;;;;;;;34.47;16.42;;;;;;;;;;5093102;28;20079;-61
2024/01/20 08:36:55;;;;;;;31.27;15.52;;;;;;;;;;5101671;27;20528;-62
2024/01/20 08:39:21;;;;;;;32.90;17.70;;;;;;;;;;5105740;28;20051;-61
2024/01/20 08:41:48;;;;;;;30.58;15.73;;;;;;;;;;5105112;27;20154;-61
2024/01/20 08:44:14;;;;;;;33.00;17.67;;;;;;;;;;5105699;27;20533;-62
2024/01/20 08:46:40;;;;;;;40.25;17.63;;;;;;;;;;5105475;27;20060;-59
2024/01/20 08:49:07;;;;;;;38.80;17.27;;;;;;;;;;5105768;27;20049;-61
2024/01/20 08:51:33;;;;;;;71.85;36.63;;;;;;;;;;5105786;27;20141;-61
2024/01/20 08:54:00;;;;;;;38.47;18.30;;;;;;;;;;5089964;27;20060;-62
2024/01/20 08:56:26;;;;;;;33.65;16.08;;;;;;;;;;5098534;27;20060;-61
2024/01/20 08:58:54;;;;;;;39.80;19.75;;;;;;;;;;5106797;27;20056;-61
2024/01/20 09:01:20;;;;;;;35.65;16.10;;;;;;;;;;5104984;27;20511;-58
2024/01/20 09:03:47;;;;;;;41.30;19.85;;;;;;;;;;5105467;27;20575;-61
2024/01/20 09:06:15;;;;;;;44.13;21.35;;;;;;;;;;5093078;28;20082;-60
2024/01/20 09:08:41;;;;;;;39.70;19.35;;;;;;;;;;5097190;27;20048;-62
2024/01/20 09:11:08;;;;;;;42.78;18.17;;;;;;;;;;5093319;27;20079;-61
2024/01/20 09:13:34;;;;;;;41.67;17.88;;;;;;;;;;5086896;28;20060;-62
2024/01/20 09:16:01;;;;;;;40.97;20.42;;;;;;;;;;5084965;28;20532;-62
2024/01/20 09:18:27;;;;;;;46.20;20.48;;;;;;;;;;5087847;28;20503;-61
2024/01/20 09:20:54;;;;;;;35.53;16.05;;;;;;;;;;5104122;27;20055;-60
2024/01/20 09:23:21;;;;;;;38.33;20.30;;;;;;;;;;5105204;28;20059;-61
2024/01/20 09:25:47;;;;;;;38.25;18.08;;;;;;;;;;5104146;28;20051;-60
2024/01/20 09:28:14;;;;;;;27.60;14.90;;;;;;;;;;5105126;28;20048;-61
2024/01/20 09:30:40;;;;;;;37.53;18.17;;;;;;;;;;5105150;27;20055;-61
2024/01/20 09:33:07;;;;;;;44.90;20.75;;;;;;;;;;5105305;27;20056;-59
2024/01/20 09:35:34;;;;;;;42.70;19.60;;;;;;;;;;5104830;27;20059;-62
2024/01/20 09:38:00;;;;;;;34.38;17.27;;;;;;;;;;5104821;27;20151;-60
2024/01/20 09:40:28;;;;;;;46.17;19.02;;;;;;;;;;5103638;27;20052;-59
2024/01/20 09:42:55;;;;;;;37.88;20.10;;;;;;;;;;5103973;27;20494;-61
2024/01/20 09:45:22;;;;;;;40.22;19.27;;;;;;;;;;5104837;27;20063;-60
2024/01/20 09:47:48;;;;;;;40.65;19.00;;;;;;;;;;5103996;27;20432;-61
2024/01/20 09:50:15;;;;;;;39.00;19.85;;;;;;;;;;5104462;27;20638;-60
2024/01/20 09:52:47;;;;;;;40.40;18.33;;;;;;;;;;5104880;27;20052;-61
2024/01/20 09:55:17;;;;;;;39.22;19.17;;;;;;;;;;5103298;28;20052;-60
2024/01/20 09:57:45;;;;;;;32.58;18.20;;;;;;;;;;5104137;27;20052;-61
2024/01/20 10:00:13;;;;;;;41.70;21.35;;;;;;;;;;5104534;27;20156;-61
2024/01/20 10:02:40;;;;;;;38.80;19.73;;;;;;;;;;5104480;27;20056;-59
2024/01/20 10:05:09;;;;;;;38.10;19.75;;;;;;;;;;5104052;27;20052;-61
2024/01/20 10:07:35;;;;;;;37.05;19.52;;;;;;;;;;5105060;27;20056;-60
2024/01/20 10:10:02;;;;;;;39.28;18.83;;;;;;;;;;5104056;27;20056;-60
2024/01/20 10:12:29;;;;;;;37.80;18.80;;;;;;;;;;5104774;27;20524;-61
2024/01/20 10:14:55;;;;;;;31.15;17.85;;;;;;;;;;5104080;27;20082;-62
2024/01/20 10:17:22;;;;;;;36.75;17.30;;;;;;;;;;5104271;27;20163;-62
2024/01/20 10:19:48;;;;;;;38.92;19.10;;;;;;;;;;5104325;28;20060;-60
2024/01/20 10:22:15;;;;;;;34.05;18.55;;;;;;;;;;5103725;28;20059;-61
2024/01/20 10:24:51;;;;;;;34.05;17.02;;;;;;;;;;5103663;28;20055;-61
2024/01/20 10:27:18;;;;;;;32.05;17.08;;;;;;;;;;5104058;27;20128;-59
2024/01/20 10:29:45;;;;;;;32.60;17.70;;;;;;;;;;5103406;27;20051;-61
2024/01/20 10:32:12;;;;;;;32.25;17.13;;;;;;;;;;5104049;28;20154;-60
2024/01/20 10:34:38;;;;;;;35.97;18.10;;;;;;;;;;5104168;28;20439;-61
2024/01/20 10:37:11;;;;;;;34.60;18.67;;;;;;;;;;5103932;27;20051;-61
2024/01/20 10:39:40;;;;;;;33.08;16.10;;;;;;;;;;5102782;28;20052;-61
2024/01/20 10:42:09;;;;;;;33.90;17.83;;;;;;;;;;5104003;27;20055;-58
2024/01/20 10:44:37;;;;;;;32.65;16.73;;;;;;;;;;5103875;27;20502;-61
2024/01/20 10:47:09;;;;;;;32.50;15.95;;;;;;;;;;5104262;28;20571;-60
2024/01/20 10:49:36;;;;;;;31.00;17.13;;;;;;;;;;5103979;28;20048;-60
2024/01/20 10:52:03;;;;;;;21.50;12.23;;;;;;;;;;5103540;27;20052;-61
2024/01/20 10:54:30;;;;;;;31.98;15.93;;;;;;;;;;5103210;27;20048;-61
2024/01/20 10:56:57;;;;;;;27.45;15.57;;;;;;;;;;5103146;27;20822;-59
2024/01/20 10:59:26;;;;;;;32.67;16.23;;;;;;;;;;5103477;27;20052;-61
2024/01/20 11:01:53;;;;;;;30.27;16.05;;;;;;;;;;5103170;27;20135;-60
2024/01/20 11:04:19;;;;;;;33.80;16.95;;;;;;;;;;5103668;27;20051;-61
2024/01/20 11:06:46;;;;;;;28.33;16.95;;;;;;;;;;5103291;27;20052;-60
2024/01/20 11:09:22;;;;;;;32.30;16.30;;;;;;;;;;5102972;28;20052;-60
2024/01/20 11:11:49;;;;;;;;;;;;;;;;;;5099519;27;20048;-61
2024/01/20 11:14:18;;;;;;;28.40;15.18;;;;;;;;;;5102221;28;47202;-62
2024/01/20 11:16:44;;;;;;;31.73;17.75;;;;;;;;;;5103033;27;20510;-62
2024/01/20 11:19:11;;;;;;;29.95;16.83;;;;;;;;;;5099003;27;20290;-61
2024/01/20 11:21:39;;;;;;;25.92;15.73;;;;;;;;;;5086612;28;20587;-62
2024/01/20 11:24:06;;;;;;;27.58;16.45;;;;;;;;;;5103640;28;20060;-61
2024/01/20 11:26:33;;;;;;;30.00;16.65;;;;;;;;;;5091822;28;20120;-61
2024/01/20 11:29:00;;;;;;;28.80;17.20;;;;;;;;;;5081410;28;20120;-62
2024/01/20 11:31:27;;;;;;;31.60;17.98;;;;;;;;;;5086717;28;20150;-60
2024/01/20 11:33:54;;;;;;;28.15;15.25;;;;;;;;;;5101009;28;20048;-60
2024/01/20 11:36:21;;;;;;;28.83;15.07;;;;;;;;;;5093941;28;20056;-59
2024/01/20 11:38:48;;;;;;;28.63;14.23;;;;;;;;;;5102215;27;20052;-61
2024/01/20 11:41:16;;;;;;;30.65;15.35;;;;;;;;;;5097795;28;20052;-60
2024/01/20 11:43:46;;;;;;;22.35;12.65;;;;;;;;;;5082748;28;20836;-61
2024/01/20 11:46:12;;;;;;;24.98;13.27;;;;;;;;;;5082576;28;20057;-61
2024/01/20 11:48:39;;;;;;;31.27;15.90;;;;;;;;;;5082801;28;20040;-61
2024/01/20 11:51:06;;;;;;;25.63;14.60;;;;;;;;;;5085438;28;20059;-61
2024/01/20 11:53:33;;;;;;;27.77;14.23;;;;;;;;;;5091559;28;20493;-61
2024/01/20 11:55:59;;;;;;;25.95;14.75;;;;;;;;;;5099799;28;20067;-61
2024/01/20 11:58:27;;;;;;;25.02;15.23;;;;;;;;;;5102428;28;20059;-60
2024/01/20 12:00:54;;;;;;;28.52;14.57;;;;;;;;;;5088798;28;20087;-60
2024/01/20 12:03:21;;;;;;;26.17;14.05;;;;;;;;;;5082026;28;20057;-61
2024/01/20 12:05:48;;;;;;;29.58;15.75;;;;;;;;;;5095387;28;20058;-61
2024/01/20 12:08:15;;;;;;;24.58;12.48;;;;;;;;;;5087409;27;20052;-59
2024/01/20 12:10:42;;;;;;;26.45;12.57;;;;;;;;;;5089844;27;20056;-60
2024/01/20 12:13:12;;;;;;;22.13;13.48;;;;;;;;;;5098822;28;20102;-60
2024/01/20 12:15:45;;;;;;;23.00;12.32;;;;;;;;;;5084510;28;20131;-60
2024/01/20 12:18:11;;;;;;;22.58;12.52;;;;;;;;;;5093735;28;20048;-60
2024/01/20 12:20:38;;;;;;;24.00;13.43;;;;;;;;;;5092187;28;20137;-60
2024/01/20 12:23:05;;;;;;;24.25;13.65;;;;;;;;;;5098180;28;20060;-60
2024/01/20 12:25:32;;;;;;;22.40;12.30;;;;;;;;;;5102516;28;20051;-60
2024/01/20 12:27:59;;;;;;;20.48;10.93;;;;;;;;;;5101065;28;20312;-59
2024/01/20 12:30:26;;;;;;;22.00;12.18;;;;;;;;;;5104338;27;20442;-60
2024/01/20 12:32:53;;;;;;;20.98;13.73;;;;;;;;;;5085168;28;20556;-61
2024/01/20 12:35:19;;;;;;;24.17;12.90;;;;;;;;;;5103354;28;20082;-61
2024/01/20 12:37:48;;;;;;;19.67;12.48;;;;;;;;;;5097723;27;20123;-59
2024/01/20 12:40:15;;;;;;;19.38;11.32;;;;;;;;;;5099884;28;20448;-60
2024/01/20 12:42:42;;;;;;;18.80;11.40;;;;;;;;;;5097044;28;20056;-60
2024/01/20 12:45:10;;;;;;;20.90;11.48;;;;;;;;;;5086861;28;20063;-60
2024/01/20 12:47:37;;;;;;;21.98;11.82;;;;;;;;;;5089537;27;20187;-60
2024/01/20 12:50:04;;;;;;;20.05;11.45;;;;;;;;;;5085987;27;20053;-60
2024/01/20 12:52:30;;;;;;;20.55;12.60;;;;;;;;;;5094560;28;20083;-60
2024/01/20 12:54:57;;;;;;;23.73;13.15;;;;;;;;;;5104559;27;20062;-59
2024/01/20 12:57:24;;;;;;;20.40;11.73;;;;;;;;;;5101518;28;20059;-61
2024/01/20 12:59:51;;;;;;;14.55;9.95;;;;;;;;;;5087840;28;20049;-59
2024/01/20 13:02:17;;;;;;;16.25;9.77;;;;;;;;;;5090855;28;20059;-61
2024/01/20 13:04:43;;;;;;;23.38;12.32;;;;;;;;;;5095580;28;20059;-60
2024/01/20 13:07:10;;;;;;;17.33;10.88;;;;;;;;;;5104583;28;20056;-59
2024/01/20 13:09:40;;;;;;;20.00;11.27;;;;;;;;;;5084997;28;20091;-61
2024/01/20 13:12:07;;;;;;;21.58;11.93;;;;;;;;;;5084587;28;20498;-60
2024/01/20 13:14:34;;;;;;;19.30;10.23;;;;;;;;;;5085075;28;20052;-60
2024/01/20 13:17:02;;;;;;;18.42;11.10;;;;;;;;;;5084423;28;20130;-62
2024/01/20 13:19:28;;;;;;;15.63;10.00;;;;;;;;;;5084317;28;20060;-60
2024/01/20 13:21:56;;;;;;;20.13;10.80;;;;;;;;;;5084545;28;20109;-60
2024/01/20 13:24:22;;;;;;;20.23;11.85;;;;;;;;;;5085301;28;20857;-61
2024/01/20 13:26:48;;;;;;;19.42;10.85;;;;;;;;;;5084586;28;20549;-61
2024/01/20 13:29:15;;;;;;;20.70;10.50;;;;;;;;;;5084857;28;20057;-60
2024/01/20 13:31:41;;;;;;;16.45;10.27;;;;;;;;;;5085195;28;20558;-67
2024/01/20 13:34:08;;;;;;;18.38;10.35;;;;;;;;;;5084321;28;20473;-63
2024/01/20 13:36:35;;;;;;;18.85;10.38;;;;;;;;;;5085368;28;20052;-61
2024/01/20 13:39:04;;;;;;;18.85;11.18;;;;;;;;;;5084161;28;20048;-60
2024/01/20 13:41:31;;;;;;;18.75;9.68;;;;;;;;;;5086734;28;20517;-63
2024/01/20 13:43:57;;;;;;;16.63;10.02;;;;;;;;;;5104522;27;20138;-60
2024/01/20 13:46:24;;;;;;;16.40;10.02;;;;;;;;;;5103975;28;20048;-62
2024/01/20 13:48:50;;;;;;;18.33;11.00;;;;;;;;;;5104730;28;20109;-63
2024/01/20 13:51:17;;;;;;;17.25;9.98;;;;;;;;;;5104783;27;20058;-62
2024/01/20 13:53:44;;;;;;;14.30;9.10;;;;;;;;;;5103937;27;20522;-62
2024/01/20 13:56:11;;;;;;;16.38;10.30;;;;;;;;;;5104658;27;20052;-62
2024/01/20 13:58:38;;;;;;;19.98;10.63;;;;;;;;;;5104315;27;20609;-62
2024/01/20 14:01:05;;;;;;;19.63;9.80;;;;;;;;;;5103962;28;20513;-62
2024/01/20 14:03:32;;;;;;;16.05;9.30;;;;;;;;;;5104632;27;20508;-63
2024/01/20 14:05:58;;;;;;;13.77;8.35;;;;;;;;;;5096317;27;20056;-62
2024/01/20 14:08:25;;;;;;;17.98;10.13;;;;;;;;;;5084311;28;20052;-62
2024/01/20 14:10:51;;;;;;;16.98;9.95;;;;;;;;;;5083574;28;20114;-62
2024/01/20 14:13:18;;;;;;;22.00;10.68;;;;;;;;;;5084348;28;20083;-62
2024/01/20 14:15:44;;;;;;;15.88;10.13;;;;;;;;;;5083805;28;20052;-63
2024/01/20 14:18:11;;;;;;;17.23;9.68;;;;;;;;;;5084607;28;20087;-61